Cairns AAF (Fort Rucker) Air Field
KOZR : now visible

Airfield :











YOU CAN JOIN US ON...

 
LOGIN :

Register | Disclaimer

   EN    FR    IT 

 









Legend :    VFR   Marginal VFR   IFR   Intensive IFR   Very Intensive IFR
Visi :
Ceiling :
>= 8 km
>= 3000ft
5 to 8 km
1000 to 3000 ft
1500m to 5 km
500 to 1000 ft
800 to 1500m
200 to 500 ft
< 800m
< 200 ft
Symbols :   Thunderstorms  Fog  Heavy snow  Heavy precipitations  Wind > 20 kt






- Airport Elevation : 301 ft


KOZR - Cairns AAF (Fort Rucker) Air Field

CURRENT METAR :
  • 260456Z AUTO 27003KT 10SM CLR 19/18 A2991 RMK AO2 SLP129 T01860184

EXPIRED METARs :
  • 260356Z AUTO 24004KT 10SM CLR 20/19 A2991 RMK AO2 SLP129 T01950193
  • 260256Z AUTO 29003KT 10SM CLR 21/20 A2990 RMK AO2 SLP125 T02100195 52012

TAF COR TAF KOZR
Valid from the 25 at 19:00 until the 26 at 22:00 UTC


252010Z 2519/2622 24005KT 9999 FEW010 SCT020 BKN040 BKN180 QNH2982INS
FM252100 28008KT 9999 SCT035 QNH2982INS
TEMPO 2521/2524 29010G15KT
FM260900 33007KT 9999 SKC QNH2985INS TX28/2521Z TN13/2608Z
KZJX FIR / North America



MET'MAP, your aeronautical weather chart ! - Copyright ORBIFLY December 2007 - Disclaimer

ORBIFLY MET'MAP TEAM :

Programming & Development : Alexandra Zaïnal
Concept & original design : Baudouin d'Aumeries
Assistance for programming : Marc-Olivier Méhu
Technical & hardware support : Manuel Goepfert

Contact : metmap@orbifly.com




SOURCES & CREDITS :

   NOAA       Earth
Advisory